Time;durP1;ratioP1;P1;durP2;ratioP2;P2;SDS_P1;SDS_P2;PMS_P1;PMS_P2;Temp;Humidity;BMP_temperature;BMP_pressure;BME280_temperature;BME280_humidity;BME280_pressure;Samples;Min_cycle;Max_cycle;Signal;HPM_P1;HPM_P2
2022/10/12 00:01:25;;;;;;;7.97;5.28;;;;;;;20.44;48.78;101435.44;1705508;82;21149;-78
2022/10/12 00:03:51;;;;;;;9.80;6.25;;;;;;;20.44;48.76;101433.23;1732882;82;21130;-79
2022/10/12 00:06:20;;;;;;;7.22;5.50;;;;;;;20.45;48.77;101437.64;1732484;82;21310;-79
2022/10/12 00:08:47;;;;;;;7.37;5.50;;;;;;;20.43;48.74;101437.94;1732971;82;21133;-79
2022/10/12 00:11:20;;;;;;;7.58;5.45;;;;;;;20.44;48.74;101430.47;1699608;82;21566;-78
2022/10/12 00:13:46;;;;;;;8.35;5.97;;;;;;;20.45;48.74;101437.64;1700482;84;21149;-80
2022/10/12 00:16:14;;;;;;;7.72;5.72;;;;;;;20.44;48.74;101435.99;1649657;84;21811;-79
2022/10/12 00:18:51;;;;;;;8.03;5.10;;;;;;;20.45;48.74;101439.03;1700227;84;21071;-79
2022/10/12 00:21:17;;;;;;;8.05;5.75;;;;;;;20.44;48.72;101443.73;1700487;83;21558;-79
2022/10/12 00:23:43;;;;;;;9.33;6.12;;;;;;;20.44;48.73;101434.05;1703530;83;21052;-79
2022/10/12 00:26:15;;;;;;;9.18;5.80;;;;;;;20.43;48.71;101435.17;1700831;83;21060;-80
2022/10/12 00:28:41;;;;;;;8.13;5.85;;;;;;;20.44;48.71;101437.37;1713178;82;21112;-78
2022/10/12 00:31:13;;;;;;;8.25;5.00;;;;;;;20.44;48.69;101433.23;1687892;84;21507;-79
2022/10/12 00:33:40;;;;;;;6.58;5.25;;;;;;;20.44;48.69;101438.75;1688082;85;21491;-79
2022/10/12 00:36:28;;;;;;;10.78;6.00;;;;;;;20.44;48.68;101441.52;1717781;83;21080;-79
2022/10/12 00:38:54;;;;;;;8.15;5.65;;;;;;;20.44;48.66;101444.28;1744459;80;21510;-78
2022/10/12 00:41:24;;;;;;;8.73;5.75;;;;;;;20.43;48.67;101442.08;1744149;82;21897;-79
2022/10/12 00:43:51;;;;;;;8.18;5.45;;;;;;;20.43;48.66;101433.78;1744395;81;21055;-78
2022/10/12 00:46:32;;;;;;;7.80;5.70;;;;;;;20.43;48.66;101431.02;1743977;81;21039;-78
2022/10/12 00:49:14;;;;;;;9.38;5.33;;;;;;;20.43;48.67;101434.34;1743884;81;21024;-79
2022/10/12 00:51:41;;;;;;;7.40;5.60;;;;;;;20.41;48.64;101424.96;1744481;82;21079;-79
2022/10/12 00:54:11;;;;;;;7.12;5.10;;;;;;;20.42;48.63;101430.76;1744156;81;21629;-78
2022/10/12 00:56:44;;;;;;;7.00;5.45;;;;;;;20.42;48.65;101425.23;1744148;81;21580;-78
2022/10/12 00:59:15;;;;;;;6.72;5.35;;;;;;;20.41;48.61;101431.88;1744065;82;21035;-79
2022/10/12 01:01:41;;;;;;;7.90;5.70;;;;;;;20.41;48.61;101433.84;1741349;81;21076;-79
2022/10/12 01:04:07;;;;;;;7.20;5.22;;;;;;;20.42;48.61;101429.93;1714521;83;21005;-79
2022/10/12 01:06:34;;;;;;;8.65;5.92;;;;;;;20.41;48.62;101433.25;1661432;85;21040;-79
2022/10/12 01:09:00;;;;;;;7.83;5.25;;;;;;;20.41;48.61;101426.34;1697076;84;21513;-79
2022/10/12 01:11:27;;;;;;;7.00;4.72;;;;;;;20.42;48.61;101431.31;1717051;82;21093;-79
2022/10/12 01:13:53;;;;;;;7.35;5.28;;;;;;;20.41;48.63;101426.93;1719642;82;21100;-79
2022/10/12 01:16:43;;;;;;;8.68;5.40;;;;;;;20.42;48.62;101430.76;1720098;83;21033;-79
2022/10/12 01:19:44;;;;;;;7.80;5.40;;;;;;;20.42;48.61;101434.08;1719655;83;21169;-79
2022/10/12 01:22:14;;;;;;;9.73;5.75;;;;;;;20.40;48.57;101424.73;1719744;83;21131;-80
2022/10/12 01:25:09;;;;;;;6.28;5.53;;;;;;;20.40;48.56;101427.48;1719819;83;28846;-80
2022/10/12 01:27:49;;;;;;;7.33;5.45;;;;;;;20.40;48.56;101428.05;1719712;83;21045;-78
2022/10/12 01:30:24;;;;;;;7.85;5.67;;;;;;;20.40;48.55;101429.42;1719493;83;21080;-78
2022/10/12 01:33:20;;;;;;;6.85;5.10;;;;;;;20.38;48.55;101431.09;1719068;83;21132;-78
2022/10/12 01:36:10;;;;;;;8.70;6.22;;;;;;;20.39;48.56;101432.75;1719474;83;21547;-78
2022/10/12 01:38:50;;;;;;;7.67;5.25;;;;;;;20.38;48.54;101442.71;1720749;82;21428;-79
2022/10/12 01:41:31;;;;;;;8.60;4.85;;;;;;;20.38;48.54;101431.09;1722611;83;21049;-78
2022/10/12 01:43:57;;;;;;;6.65;4.92;;;;;;;20.39;48.54;101438.83;1720194;83;21056;-78
2022/10/12 01:46:29;;;;;;;7.80;5.12;;;;;;;20.38;48.52;101437.19;1719672;83;21172;-78
2022/10/12 01:48:58;;;;;;;6.97;5.20;;;;;;;20.37;48.54;101441.89;1719930;83;21519;-78
2022/10/12 01:51:44;;;;;;;8.00;5.67;;;;;;;20.38;48.53;101444.92;1719806;83;21076;-79
2022/10/12 01:54:22;;;;;;;6.60;5.25;;;;;;;20.38;48.54;101444.92;1719482;83;21537;-79
2022/10/12 01:56:54;;;;;;;7.30;5.17;;;;;;;20.39;48.54;101447.13;1720202;83;21187;-80
2022/10/12 01:59:58;;;;;;;6.97;5.53;;;;;;;20.37;48.52;101446.03;1719780;83;21280;-79
2022/10/12 02:02:53;;;;;;;7.47;5.65;;;;;;;20.38;48.54;101445.48;1689356;83;21020;-79
2022/10/12 02:05:25;;;;;;;8.15;5.30;;;;;;;20.38;48.49;101445.48;1719856;83;21517;-79
2022/10/12 02:08:23;;;;;;;9.78;5.20;;;;;;;20.37;48.49;101452.12;1719594;83;21016;-79
2022/10/12 02:11:00;;;;;;;6.72;5.25;;;;;;;20.37;48.52;101449.35;1719819;82;21068;-79
2022/10/12 02:13:30;;;;;;;7.00;5.40;;;;;;;20.36;48.48;101458.23;1720022;83;21635;-80
2022/10/12 02:15:56;;;;;;;9.10;5.70;;;;;;;20.36;48.50;101453.27;1716299;83;21079;-79
2022/10/12 02:18:23;;;;;;;7.58;5.33;;;;;;;20.36;48.49;101456.03;1741417;82;21138;-80
2022/10/12 02:20:51;;;;;;;8.23;5.90;;;;;;;20.36;48.50;101458.23;1726196;82;22001;-79
2022/10/12 02:23:17;;;;;;;7.42;5.87;;;;;;;20.37;48.50;101464.00;1730756;82;21068;-80
2022/10/12 02:25:45;;;;;;;8.15;6.08;;;;;;;20.37;48.50;101461.23;1731192;82;21487;-79
2022/10/12 02:28:14;;;;;;;7.72;5.22;;;;;;;20.37;48.50;101460.41;1731175;82;21316;-80
2022/10/12 02:30:45;;;;;;;7.25;5.55;;;;;;;20.38;48.48;101460.67;1780994;80;21076;-79
2022/10/12 02:33:26;;;;;;;7.97;5.25;;;;;;;20.38;48.48;101461.50;1781256;80;21068;-80
2022/10/12 02:36:04;;;;;;;5.97;4.83;;;;;;;20.38;48.49;101459.30;1781199;80;21075;-80
2022/10/12 02:38:43;;;;;;;7.60;5.10;;;;;;;20.38;48.47;101461.50;1714854;83;21963;-80
2022/10/12 02:41:16;;;;;;;6.58;5.00;;;;;;;20.38;48.44;101459.30;1730664;82;21613;-80
2022/10/12 02:43:57;;;;;;;7.67;5.25;;;;;;;20.38;48.45;101463.44;1730921;82;21068;-80
2022/10/12 02:46:24;;;;;;;6.30;5.00;;;;;;;20.37;48.44;101466.76;1730850;82;21036;-79
2022/10/12 02:48:50;;;;;;;7.05;5.20;;;;;;;20.37;48.45;101464.55;1731290;82;21142;-79
2022/10/12 02:51:17;;;;;;;7.55;5.28;;;;;;;20.36;48.44;101456.84;1701911;82;21130;-79
2022/10/12 02:53:44;;;;;;;8.43;5.12;;;;;;;20.37;48.44;101459.03;1730444;82;21424;-80
2022/10/12 02:56:18;;;;;;;6.90;5.10;;;;;;;20.38;48.44;101460.12;1678676;82;21012;-80
2022/10/12 02:58:45;;;;;;;6.37;4.97;;;;;;;20.38;48.45;101453.77;1730961;82;21044;-79
2022/10/12 03:01:11;;;;;;;6.55;4.75;;;;;;;20.38;48.43;101455.15;1730804;82;21128;-79
2022/10/12 03:03:38;;;;;;;7.75;5.00;;;;;;;20.37;48.43;101458.47;1731244;82;20986;-80
2022/10/12 03:06:05;;;;;;;7.20;5.25;;;;;;;20.37;48.43;101457.64;1731016;82;21040;-80
2022/10/12 03:08:31;;;;;;;6.00;4.85;;;;;;;20.39;48.42;101458.18;1730789;82;21681;-80
2022/10/12 03:11:02;;;;;;;5.95;4.90;;;;;;;20.38;48.42;101457.35;1727206;82;21104;-78
2022/10/12 03:13:28;;;;;;;;;;;;;;;20.38;48.42;101465.64;1725370;83;21516;-79
2022/10/12 03:16:01;;;;;;;8.38;5.25;;;;;;;20.36;48.39;101463.76;1732929;82;21196;-78
2022/10/12 03:18:27;;;;;;;7.58;4.70;;;;;;;20.37;48.41;101467.31;1733077;82;20993;-79
2022/10/12 03:20:54;;;;;;;6.35;4.72;;;;;;;20.38;48.40;101473.11;1682399;82;21093;-79
2022/10/12 03:23:20;;;;;;;7.58;4.58;;;;;;;20.38;48.40;101470.34;1732826;82;21037;-78
2022/10/12 03:25:46;;;;;;;6.08;4.72;;;;;;;20.36;48.41;101469.28;1730340;82;21040;-79
2022/10/12 03:28:13;;;;;;;8.15;5.00;;;;;;;20.37;48.38;101472.84;1718812;82;21912;-78
2022/10/12 03:30:39;;;;;;;6.95;5.00;;;;;;;20.36;48.38;101466.52;1692133;84;21097;-78
2022/10/12 03:33:11;;;;;;;9.73;5.50;;;;;;;20.37;48.37;101470.91;1708841;83;21105;-78
2022/10/12 03:35:38;;;;;;;6.15;5.05;;;;;;;20.37;48.35;101467.31;1708998;84;21044;-78
2022/10/12 03:38:04;;;;;;;6.92;5.00;;;;;;;20.37;48.36;101470.91;1708587;83;21068;-78
2022/10/12 03:40:30;;;;;;;7.62;5.35;;;;;;;20.38;48.34;101471.73;1708912;83;21144;-79
2022/10/12 03:42:56;;;;;;;6.20;4.40;;;;;;;20.38;48.33;101474.50;1661465;84;21107;-79
2022/10/12 03:45:22;;;;;;;7.97;5.10;;;;;;;20.35;48.36;101469.02;1643262;84;21085;-79
2022/10/12 03:47:49;;;;;;;10.00;5.58;;;;;;;20.37;48.34;101470.91;1692233;84;21508;-79
2022/10/12 03:50:15;;;;;;;9.93;5.28;;;;;;;20.38;48.31;101477.26;1708890;84;21041;-78
2022/10/12 03:52:42;;;;;;;7.70;5.00;;;;;;;20.38;48.33;101475.31;1708702;84;21146;-78
2022/10/12 03:55:08;;;;;;;6.45;5.03;;;;;;;20.38;48.34;101479.47;1691278;84;21053;-79
2022/10/12 03:57:41;;;;;;;7.80;4.92;;;;;;;20.38;48.33;101473.11;1691410;84;21136;-79
2022/10/12 04:00:09;;;;;;;6.97;4.50;;;;;;;20.38;48.33;101480.84;1691877;84;21072;-78
2022/10/12 04:02:35;;;;;;;7.03;4.90;;;;;;;20.38;48.34;101480.84;1708543;84;21532;-79
2022/10/12 04:05:02;;;;;;;6.72;4.87;;;;;;;20.40;48.32;101484.70;1715493;83;21616;-79
2022/10/12 04:07:28;;;;;;;7.62;5.30;;;;;;;20.39;48.30;101477.53;1731233;82;21059;-79
2022/10/12 04:09:54;;;;;;;8.35;5.03;;;;;;;20.39;48.29;101482.50;1731541;82;21540;-79
2022/10/12 04:12:27;;;;;;;15.40;5.65;;;;;;;20.38;48.27;101484.17;1681899;84;21088;-78
2022/10/12 04:14:54;;;;;;;28.90;6.50;;;;;;;20.36;48.29;101481.72;1704614;84;21131;-78
2022/10/12 04:17:20;;;;;;;27.50;5.72;;;;;;;20.32;48.33;101486.77;1724736;83;21566;-78
2022/10/12 04:19:46;;;;;;;11.18;6.03;;;;;;;20.28;48.37;101480.98;1704873;84;21114;-78
2022/10/12 04:22:13;;;;;;;18.82;5.78;;;;;;;20.27;48.41;101488.19;1643987;83;21076;-78
2022/10/12 04:24:39;;;;;;;11.93;5.22;;;;;;;20.25;48.42;101487.64;1702990;83;22481;-77
2022/10/12 04:27:06;;;;;;;14.15;5.25;;;;;;;20.21;48.45;101487.43;1702350;82;21528;-77
2022/10/12 04:29:32;;;;;;;14.13;5.10;;;;;;;20.19;48.48;101491.63;1699665;84;21186;-78
2022/10/12 04:31:59;;;;;;;14.07;4.97;;;;;;;20.17;48.49;101492.47;1702910;84;21080;-80
2022/10/12 04:34:25;;;;;;;15.60;5.00;;;;;;;20.14;48.51;101499.42;1699819;83;21510;-77
2022/10/12 04:36:52;;;;;;;11.18;4.60;;;;;;;20.11;48.53;101506.93;1679617;84;21114;-78
2022/10/12 04:39:18;;;;;;;12.53;5.42;;;;;;;20.11;48.54;101507.48;1696116;82;21068;-76
2022/10/12 04:41:44;;;;;;;12.23;5.58;;;;;;;20.10;48.53;101512.19;1701130;82;21860;-79
2022/10/12 04:44:11;;;;;;;17.75;5.80;;;;;;;20.11;48.55;101518.53;1659649;85;21568;-78
2022/10/12 04:46:37;;;;;;;10.68;4.95;;;;;;;20.12;48.54;101516.02;1676759;84;21065;-76
2022/10/12 04:49:03;;;;;;;14.13;5.42;;;;;;;20.11;48.54;101512.45;1656550;84;21081;-78
2022/10/12 04:51:30;;;;;;;11.18;5.47;;;;;;;20.09;48.59;101520.20;1683743;82;21172;-78
2022/10/12 04:53:56;;;;;;;14.65;5.42;;;;;;;20.08;48.63;101513.85;1687231;84;21148;-79
2022/10/12 04:56:23;;;;;;;19.45;5.37;;;;;;;20.08;48.69;101520.76;1688864;82;21160;-79
2022/10/12 04:58:50;;;;;;;16.27;5.85;;;;;;;20.07;48.71;101524.63;1703780;81;21045;-78
2022/10/12 05:01:18;;;;;;;23.65;5.78;;;;;;;20.06;48.69;101524.95;1684952;84;21187;-79
2022/10/12 05:03:44;;;;;;;16.87;5.47;;;;;;;20.03;48.72;101529.66;1681732;84;21140;-77
2022/10/12 05:06:11;;;;;;;18.85;5.03;;;;;;;20.03;48.81;101527.72;1695458;82;21128;-78
2022/10/12 05:08:37;;;;;;;16.65;5.58;;;;;;;20.02;48.85;101533.56;1685740;83;21020;-80
2022/10/12 05:11:04;;;;;;;18.62;6.12;;;;;;;20.03;48.89;101537.95;1686489;83;21112;-81
2022/10/12 05:13:30;;;;;;;16.62;7.17;;;;;;;20.01;48.94;101534.13;1687248;82;21092;-78
2022/10/12 05:15:56;;;;;;;16.07;4.85;;;;;;;19.99;49.00;101539.11;1696548;82;21142;-77
2022/10/12 05:18:23;;;;;;;13.25;4.95;;;;;;;19.96;49.04;101545.23;1689512;82;21122;-78
2022/10/12 05:20:49;;;;;;;17.17;5.35;;;;;;;19.92;49.08;101541.41;1669361;84;21509;-79
2022/10/12 05:23:15;;;;;;;16.85;5.00;;;;;;;19.90;49.11;101541.45;1672142;82;21287;-79
2022/10/12 05:25:42;;;;;;;19.57;5.22;;;;;;;19.87;49.14;101542.03;1669864;85;21222;-81
2022/10/12 05:28:08;;;;;;;9.88;5.58;;;;;;;19.85;49.18;101547.04;1660933;84;21809;-83
2022/10/12 05:30:35;;;;;;;9.43;5.30;;;;;;;19.83;49.20;101547.32;1663235;84;21614;-80
2022/10/12 05:33:01;;;;;;;9.93;4.30;;;;;;;19.82;49.21;101545.67;1645510;85;21148;-81
2022/10/12 05:35:27;;;;;;;8.25;4.33;;;;;;;19.82;49.22;101549.81;1715870;79;21093;-82
2022/10/12 05:37:54;;;;;;;14.78;4.75;;;;;;;19.83;49.20;101552.02;1745693;81;21036;-80
2022/10/12 05:40:20;;;;;;;12.50;4.80;;;;;;;19.83;49.19;101561.12;1760003;79;21073;-80
2022/10/12 05:42:46;;;;;;;11.25;4.62;;;;;;;19.84;49.18;101557.26;1713364;82;21192;-78
2022/10/12 05:45:15;;;;;;;10.20;4.70;;;;;;;19.83;49.19;101561.12;1761574;79;21531;-82
2022/10/12 05:47:41;;;;;;;15.95;4.53;;;;;;;19.83;49.16;101562.51;1763209;79;21687;-81
2022/10/12 05:50:08;;;;;;;19.87;5.20;;;;;;;19.85;49.17;101568.58;1759379;79;21040;-81
2022/10/12 05:52:35;;;;;;;17.48;5.50;;;;;;;19.85;49.25;101572.72;1767474;79;21064;-84
2022/10/12 05:55:01;;;;;;;22.10;4.58;;;;;;;19.86;49.35;101572.95;1773731;79;21120;-84
2022/10/12 05:57:27;;;;;;;19.23;5.25;;;;;;;19.88;49.46;101580.41;1737907;80;21744;-80
2022/10/12 05:59:54;;;;;;;15.45;4.55;;;;;;;19.90;49.61;101585.64;1780569;79;21091;-79
2022/10/12 06:02:20;;;;;;;25.70;4.75;;;;;;;19.92;49.72;101591.12;1756058;79;21163;-80
2022/10/12 06:04:46;;;;;;;15.25;4.17;;;;;;;19.92;49.73;101592.50;1766184;79;21744;-82
2022/10/12 06:07:12;;;;;;;25.97;4.22;;;;;;;19.93;49.75;101598.30;1762325;80;21791;-81
2022/10/12 06:09:39;;;;;;;21.90;4.70;;;;;;;19.93;49.76;101605.20;1764356;79;21103;-81
2022/10/12 06:12:06;;;;;;;19.05;5.50;;;;;;;19.94;49.78;101604.66;1765874;79;21102;-81
2022/10/12 06:14:33;;;;;;;12.63;4.58;;;;;;;19.94;49.75;101606.83;1764475;79;21083;-81
2022/10/12 06:16:59;;;;;;;8.70;3.85;;;;;;;19.96;49.70;101619.80;1759425;78;21091;-80
2022/10/12 06:19:25;;;;;;;14.07;4.20;;;;;;;19.96;49.66;101616.21;1761396;79;21102;-80
2022/10/12 06:21:52;;;;;;;17.80;5.90;;;;;;;19.95;49.61;101618.15;1762543;79;21091;-80
2022/10/12 06:24:18;;;;;;;16.07;4.75;;;;;;;19.92;49.60;101617.36;1753609;79;21048;-81
2022/10/12 06:26:44;;;;;;;15.10;4.92;;;;;;;19.91;49.60;101617.64;1758604;80;21460;-80
2022/10/12 06:29:11;;;;;;;10.05;4.80;;;;;;;19.90;49.57;101621.55;1760087;79;22091;-80
2022/10/12 06:31:38;;;;;;;12.78;4.30;;;;;;;19.89;49.55;101621.27;1744957;80;21218;-80
2022/10/12 06:34:05;;;;;;;11.70;4.15;;;;;;;19.87;49.55;101628.45;1767413;80;21479;-80
2022/10/12 06:36:31;;;;;;;8.98;3.95;;;;;;;19.85;49.55;101628.50;1735668;81;21067;-80
2022/10/12 06:38:57;;;;;;;10.45;4.35;;;;;;;19.82;49.56;101629.89;1706828;83;21063;-80
2022/10/12 06:41:24;;;;;;;13.32;4.70;;;;;;;19.83;49.57;101634.86;1712179;82;21072;-78
2022/10/12 06:43:50;;;;;;;8.20;3.77;;;;;;;19.82;49.57;101633.20;1728994;82;21673;-80
2022/10/12 06:46:17;;;;;;;10.20;3.52;;;;;;;19.82;49.56;101635.41;1723984;82;21095;-81
2022/10/12 06:48:43;;;;;;;17.07;4.50;;;;;;;19.84;49.59;101633.75;1720955;80;21143;-82
2022/10/12 06:51:10;;;;;;;28.02;5.70;;;;;;;19.86;49.69;101630.16;1727547;80;21454;-83
2022/10/12 06:53:36;;;;;;;14.78;4.60;;;;;;;19.88;50.08;101635.64;1735530;80;21041;-82
2022/10/12 06:56:07;;;;;;;18.98;5.00;;;;;;;19.91;50.37;101637.80;1722771;80;21126;-83
2022/10/12 06:58:34;;;;;;;21.23;5.03;;;;;;;19.94;50.43;101636.41;1730941;82;21123;-84
2022/10/12 07:01:06;;;;;;;22.07;5.20;;;;;;;19.98;50.78;101636.91;1727031;80;21180;-82
2022/10/12 07:03:32;;;;;;;26.73;5.58;;;;;;;20.01;50.83;101642.40;1727573;82;21732;-88
2022/10/12 07:06:12;;;;;;;29.00;5.55;;;;;;;20.03;50.92;101644.30;1728115;80;21554;-87
2022/10/12 07:08:39;;;;;;;21.70;5.20;;;;;;;20.04;51.00;101641.80;1726594;82;21072;-84
2022/10/12 07:11:08;;;;;;;21.57;4.67;;;;;;;20.02;50.97;101644.88;1730424;80;21052;-83
2022/10/12 07:13:34;;;;;;;21.70;4.25;;;;;;;20.01;50.96;101639.64;1725192;80;21056;-82
2022/10/12 07:16:01;;;;;;;19.65;4.65;;;;;;;20.00;50.87;101639.37;1726102;80;21057;-77
2022/10/12 07:18:30;;;;;;;18.75;4.80;;;;;;;19.99;50.85;101639.09;1725948;80;21083;-84
2022/10/12 07:20:58;;;;;;;17.92;5.78;;;;;;;19.99;50.88;101634.95;1732691;80;21713;-86
2022/10/12 07:23:26;;;;;;;27.02;6.10;;;;;;;20.01;50.91;101642.40;1724948;81;21080;-81
2022/10/12 07:25:52;;;;;;;22.13;4.97;;;;;;;20.01;50.86;101638.26;1723782;80;22221;-83
2022/10/12 07:28:19;;;;;;;13.28;4.72;;;;;;;20.03;50.81;101642.36;1734006;80;21160;-81
2022/10/12 07:30:47;;;;;;;19.85;4.78;;;;;;;20.05;50.74;101648.98;1741185;80;21115;-79
2022/10/12 07:33:19;;;;;;;17.92;4.75;;;;;;;20.05;50.68;101642.91;1725697;81;21155;-80
2022/10/12 07:35:55;;;;;;;16.23;4.62;;;;;;;20.06;50.61;101643.17;1727565;80;22030;-82
2022/10/12 07:38:21;;;;;;;14.73;4.83;;;;;;;20.06;50.56;101651.46;1737800;80;21900;-82
2022/10/12 07:40:47;;;;;;;17.25;5.60;;;;;;;20.06;50.56;101650.08;1734057;80;21048;-84
2022/10/12 07:43:14;;;;;;;19.90;5.40;;;;;;;20.06;50.62;101652.02;1733634;80;22003;-81
2022/10/12 07:45:40;;;;;;;13.95;5.90;;;;;;;20.06;50.61;101650.08;1736274;80;21177;-79
2022/10/12 07:48:06;;;;;;;25.72;5.35;;;;;;;20.05;50.66;101651.19;1743520;80;21048;-83
2022/10/12 07:50:33;;;;;;;24.98;5.55;;;;;;;20.06;50.90;101648.70;1739466;80;21698;-87
2022/10/12 07:52:59;;;;;;;21.82;6.53;;;;;;;20.07;51.07;101637.09;1735647;80;21574;-82
2022/10/12 07:55:27;;;;;;;31.23;6.80;;;;;;;20.07;51.21;101644.00;1753650;80;21777;-79
2022/10/12 07:57:59;;;;;;;25.37;6.30;;;;;;;20.06;51.30;101642.34;1730377;80;22426;-84
2022/10/12 08:00:30;;;;;;;33.10;6.22;;;;;;;20.11;51.54;101650.58;1731907;80;22462;-84
2022/10/12 08:03:04;;;;;;;40.10;6.50;;;;;;;20.13;51.90;101646.95;1737276;80;21035;-86
2022/10/12 08:05:30;;;;;;;48.95;7.08;;;;;;;20.17;52.08;101647.18;1732010;80;21556;-86
2022/10/12 08:07:58;;;;;;;40.30;7.33;;;;;;;20.19;52.13;101649.11;1734131;80;21028;-78
2022/10/12 08:10:25;;;;;;;41.58;6.67;;;;;;;20.19;52.37;101649.11;1734018;80;21881;-77
2022/10/12 08:12:54;;;;;;;32.60;7.95;;;;;;;20.22;52.35;101648.51;1731248;80;21115;-77
2022/10/12 08:15:21;;;;;;;30.27;6.92;;;;;;;20.22;52.37;101646.57;1725940;80;21812;-80
2022/10/12 08:17:49;;;;;;;37.78;7.15;;;;;;;20.23;52.42;101650.16;1710186;81;40162;-81
2022/10/12 08:20:15;;;;;;;32.03;7.17;;;;;;;20.24;52.52;101652.61;1719654;81;21130;-82
2022/10/12 08:22:42;;;;;;;30.60;6.85;;;;;;;20.24;52.52;101648.47;1719783;82;21699;-84
2022/10/12 08:25:08;;;;;;;32.75;8.18;;;;;;;20.27;52.53;101649.83;1730686;82;21095;-81
2022/10/12 08:27:37;;;;;;;32.08;7.78;;;;;;;20.27;52.58;101647.07;1723089;82;21083;-83
2022/10/12 08:30:05;;;;;;;22.13;6.78;;;;;;;20.27;52.60;101647.07;1728846;80;21060;-89
2022/10/12 08:32:32;;;;;;;34.40;7.75;;;;;;;20.28;52.62;101651.48;1728185;82;21064;-87
2022/10/12 08:34:58;;;;;;;34.00;7.33;;;;;;;20.28;52.58;101646.79;1745792;80;21479;-85
2022/10/12 08:37:25;;;;;;;27.20;8.13;;;;;;;20.29;52.61;101650.34;1728239;82;21157;-89
2022/10/12 08:39:51;;;;;;;32.45;8.23;;;;;;;20.30;52.67;101651.47;1723939;82;21032;-87
2022/10/12 08:42:31;;;;;;;30.35;7.28;;;;;;;20.31;52.72;101652.30;1725260;80;22163;-86
2022/10/12 08:45:09;;;;;;;34.15;8.15;;;;;;;20.34;53.15;101642.86;1727591;82;21032;-83
2022/10/12 08:47:45;;;;;;;21.48;6.75;;;;;;;20.37;53.20;101642.81;1729252;80;21156;-79
2022/10/12 08:50:33;;;;;;;32.78;6.72;;;;;;;20.40;53.41;101644.45;1722233;82;21071;-82
2022/10/12 08:53:14;;;;;;;30.35;6.45;;;;;;;20.41;53.45;101647.45;1722261;82;21044;-85
2022/10/12 08:55:43;;;;;;;25.57;6.60;;;;;;;20.42;53.55;101651.87;1726106;82;21200;-83
2022/10/12 08:58:23;;;;;;;26.80;5.58;;;;;;;20.43;53.67;101654.08;1725750;82;21012;-83
2022/10/12 09:01:00;;;;;;;23.57;5.33;;;;;;;20.44;53.66;101649.65;1727744;80;21126;-82
2022/10/12 09:04:11;;;;;;;26.17;6.33;;;;;;;20.42;53.54;101649.11;1733714;80;21072;-82
2022/10/12 09:06:48;;;;;;;35.17;5.50;;;;;;;20.42;53.68;101656.58;1724953;82;21123;-83
2022/10/12 09:09:34;;;;;;;19.10;4.67;;;;;;;20.42;53.65;101656.02;1720629;82;21119;-83
2022/10/12 09:12:12;;;;;;;16.95;5.45;;;;;;;20.41;53.58;101655.75;1726549;82;21284;-83
2022/10/12 09:14:39;;;;;;;15.93;4.50;;;;;;;20.41;53.51;101649.42;1738820;82;21575;-83
2022/10/12 09:17:21;;;;;;;13.22;5.08;;;;;;;20.39;53.33;101653.85;1728502;82;21653;-86
2022/10/12 09:19:47;;;;;;;22.02;4.65;;;;;;;20.38;53.15;101652.75;1713972;82;21048;-85
2022/10/12 09:22:18;;;;;;;15.18;4.58;;;;;;;20.35;53.13;101654.19;1740250;82;21049;-84
2022/10/12 09:24:47;;;;;;;15.08;4.60;;;;;;;20.34;53.09;101649.77;1721796;82;21622;-86
2022/10/12 09:27:18;;;;;;;21.57;4.42;;;;;;;20.35;52.95;101649.21;1722094;82;22013;-85
2022/10/12 09:29:54;;;;;;;8.18;3.77;;;;;;;20.35;52.92;101657.50;1728942;82;21080;-86
2022/10/12 09:32:31;;;;;;;15.28;4.15;;;;;;;20.34;52.81;101648.38;1696013;82;21657;-83
2022/10/12 09:35:10;;;;;;;16.67;4.30;;;;;;;20.32;52.71;101647.05;1690632;83;21260;-85
2022/10/12 09:37:34;;;;;;;12.15;4.17;;;;;;;20.32;52.56;101649.25;1702176;83;21625;-85
2022/10/12 09:40:01;;;;;;;14.78;5.00;;;;;;;20.32;52.48;101655.34;1700939;82;21173;-85
2022/10/12 09:42:27;;;;;;;8.75;4.20;;;;;;;20.32;52.41;101662.25;1725059;82;21509;-85
2022/10/12 09:45:01;;;;;;;15.35;3.98;;;;;;;20.31;52.35;101656.45;1730264;82;21394;-86
2022/10/12 09:47:30;;;;;;;11.63;3.80;;;;;;;20.30;52.27;101655.62;1725163;82;21671;-85
2022/10/12 09:49:59;;;;;;;8.15;3.77;;;;;;;20.29;52.17;101657.25;1737032;82;21080;-82
2022/10/12 09:52:41;;;;;;;8.50;3.80;;;;;;;20.30;52.10;101657.00;1736650;80;22228;-85
2022/10/12 09:55:17;;;;;;;11.20;3.65;;;;;;;20.29;51.96;101654.48;1725162;82;21601;-84
2022/10/12 09:57:53;;;;;;;15.83;3.87;;;;;;;20.29;51.96;101653.11;1729214;82;21745;-84
2022/10/12 10:00:32;;;;;;;14.25;4.00;;;;;;;20.31;52.15;101648.98;1719711;81;21079;-84
2022/10/12 10:03:04;;;;;;;12.98;4.00;;;;;;;20.34;52.27;101652.53;1706339;83;21057;-82
2022/10/12 10:05:35;;;;;;;13.75;5.05;;;;;;;20.36;52.22;101642.57;1731855;82;21251;-84
2022/10/12 10:08:20;;;;;;;17.35;4.80;;;;;;;20.35;52.08;101654.73;1705092;82;21024;-83
2022/10/12 10:10:54;;;;;;;10.35;3.65;;;;;;;20.33;52.11;101640.37;1729520;81;21444;-85
2022/10/12 10:13:24;;;;;;;11.75;4.08;;;;;;;20.35;52.15;101645.06;1714210;81;21079;-83
2022/10/12 10:16:08;;;;;;;12.07;3.87;;;;;;;20.35;51.96;101646.45;1712563;82;21032;-82
2022/10/12 10:18:38;;;;;;;11.25;4.12;;;;;;;20.34;51.82;101643.41;1709841;83;21707;-83
2022/10/12 10:21:07;;;;;;;9.77;4.20;;;;;;;20.34;51.71;101639.27;1725614;82;21083;-82
2022/10/12 10:23:40;;;;;;;8.73;3.90;;;;;;;20.34;51.62;101639.27;1728509;80;21070;-83
2022/10/12 10:26:14;;;;;;;9.88;3.72;;;;;;;20.32;51.53;101632.67;1702157;83;21077;-84
2022/10/12 10:28:42;;;;;;;11.65;4.25;;;;;;;20.34;51.52;101633.73;1724813;81;21046;-82
2022/10/12 10:31:20;;;;;;;10.50;3.70;;;;;;;20.32;51.44;101629.08;1715774;80;21042;-83
2022/10/12 10:33:45;;;;;;;11.93;3.70;;;;;;;20.33;51.32;101633.47;1738170;79;21159;-81
2022/10/12 10:36:21;;;;;;;11.75;3.90;;;;;;;20.31;51.16;101632.41;1662213;81;21216;-82
2022/10/12 10:39:04;;;;;;;11.08;3.60;;;;;;;20.31;51.13;101626.05;1724274;81;21044;-82
2022/10/12 10:41:38;;;;;;;9.30;4.37;;;;;;;20.31;51.01;101623.28;1719426;81;21021;-81
2022/10/12 10:44:15;;;;;;;8.35;3.55;;;;;;;20.31;50.92;101620.52;1746884;80;21201;-81
2022/10/12 10:46:42;;;;;;;8.55;3.70;;;;;;;20.31;50.79;101613.61;1725830;80;21116;-82
2022/10/12 10:49:14;;;;;;;7.20;3.98;;;;;;;20.30;50.67;101612.79;1708263;82;21068;-82
2022/10/12 10:51:50;;;;;;;8.23;3.62;;;;;;;20.31;50.54;101608.09;1709805;82;21162;-83
2022/10/12 10:54:32;;;;;;;19.20;4.28;;;;;;;20.30;50.51;101603.12;1721029;82;21578;-84
2022/10/12 10:57:16;;;;;;;15.78;4.30;;;;;;;20.31;50.70;101603.94;1743820;80;21131;-83
2022/10/12 11:00:04;;;;;;;23.45;4.50;;;;;;;20.32;51.06;101595.37;1751452;79;21047;-85
2022/10/12 11:02:51;;;;;;;10.45;3.58;;;;;;;20.35;51.09;101592.55;1761972;80;21120;-82
2022/10/12 11:05:28;;;;;;;13.43;4.05;;;;;;;20.39;51.25;101586.70;1736566;80;21509;-84
2022/10/12 11:08:00;;;;;;;11.73;3.58;;;;;;;20.39;50.98;101588.91;1736942;80;21107;-84
2022/10/12 11:10:34;;;;;;;9.33;3.30;;;;;;;20.38;50.85;101584.48;1739452;80;21157;-84
2022/10/12 11:13:26;;;;;;;11.38;3.20;;;;;;;20.37;50.81;101588.36;1743004;80;21059;-85
2022/10/12 11:16:10;;;;;;;10.65;3.80;;;;;;;20.38;50.84;101578.13;1738854;82;21115;-84
2022/10/12 11:18:44;;;;;;;11.73;3.52;;;;;;;20.37;50.89;101573.16;1734769;82;21111;-85
2022/10/12 11:21:41;;;;;;;11.43;3.27;;;;;;;20.38;50.93;101575.38;1737459;82;21063;-85
2022/10/12 11:24:21;;;;;;;14.07;3.37;;;;;;;20.39;50.88;101574.26;1726371;81;21157;-84
2022/10/12 11:26:52;;;;;;;12.35;3.35;;;;;;;20.38;50.93;101583.66;1726396;83;21101;-84
2022/10/12 11:29:21;;;;;;;9.63;3.27;;;;;;;20.38;50.96;101583.10;1736340;82;21585;-84
2022/10/12 11:31:54;;;;;;;11.28;3.62;;;;;;;20.38;51.01;101578.96;1725227;82;21091;-85
2022/10/12 11:34:22;;;;;;;10.13;3.55;;;;;;;20.38;51.03;101578.96;1732270;81;21640;-83
2022/10/12 11:36:50;;;;;;;13.18;3.52;;;;;;;20.39;51.01;101581.17;1730301;81;21198;-83
2022/10/12 11:39:33;;;;;;;8.98;3.67;;;;;;;20.38;50.97;101577.58;1723681;82;21365;-82